SpazioLink.com il tuo mini portale

Terremoti in Italia, posizione geografica

Spaziolink il MiniPortale

Home Sfondi Screenmates SuperEnalotto Posizione navi Terremoti Calendario feste Barzellette Frasi utili Giochi Meteo Gifs Software Ricerca
Lista dei terremoti in Italia in tempo reale dopo l'elaborazione dei valori rilevati dai sensori dislocati nelle zone interessate, comprendenti gli eventi sismici di elevata magnitudo sull'intero globo, per visualizzare la posizione dell'epicentro su Google Maps cliccare sul nome del luogo evidenziato in blu.
DATA ORA MAG ≥ 2 ZONA REGIONE LAT LONG PROF km
07/12/2022 16:08:06 ML 2.1 Stretto di Messina (Reggio di Calabria, Messina) Mare 38.04 15.49 68.6
07/12/2022 12:06:10 ML 3.0 Costa Marchigiana Pesarese (Pesaro-Urbino) Mare 43.92 13.31 10.0
07/12/2022 09:36:58 ML 3.1 Isole Eolie (Messina) Mare 38.63 14.87 293.0
07/12/2022 09:08:08 ML 2.2 Costa Marchigiana Pesarese (Pesaro-Urbino) Mare 44.01 13.24 7.7
07/12/2022 08:11:42 ML 2.5 2 km a sud-ovest di Mascali (CT) Sicilia 37.75 15.19 8.8
07/12/2022 02:03:21 ML 3.2 Croatia (Land) Mondo 45.42 16.32 10.0
06/12/2022 23:01:39 ML 2.6 Adriatico Centrale (MARE) Mare 42.65 16.20 28.6
06/12/2022 13:14:39 ML 2.2 4 km a sud-est di Lariano (RM) Lazio 41.70 12.87 22.1
06/12/2022 10:33:48 ML 2.5 Costa Marchigiana Pesarese (Pesaro-Urbino) Mare 43.95 13.31 9.2
06/12/2022 10:12:25 ML 2.4 Adriatico Settentrionale (MARE) Mare 44.23 13.48 9.9
06/12/2022 08:56:32 ML 2.4 5 km a nord di Pietralunga (PG) Umbria 43.49 12.43 9.5
06/12/2022 08:08:40 ML 2.2 Isole Eolie (Messina) Mare 38.38 14.88 10.4
06/12/2022 07:07:49 Mwp 6.0 South of Jawa, Indonesia (Sea: Indonesia) Mondo -10.64 113.40 9.8
05/12/2022 21:30:55 ML 2.1 5 km a nord di Pietralunga (PG) Umbria 43.49 12.43 8.5
05/12/2022 20:31:39 ML 2.2 Tirreno Meridionale (MARE) Mare 38.45 15.30 158.6
05/12/2022 19:41:04 ML 2.1 4 km a nord di Pietralunga (PG) Umbria 43.48 12.43 8.5
05/12/2022 17:47:24 ML 2.0 3 km a est di San Salvatore Monferrato (AL) Piemonte 45.01 8.60 36.6
05/12/2022 15:47:59 ML 2.1 4 km a nord di Pietralunga (PG) Umbria 43.48 12.43 8.5
05/12/2022 15:43:28 ML 3.7 4 km a nord di Pietralunga (PG) Umbria 43.48 12.44 8.7
05/12/2022 13:53:42 ML 2.1 Costa Marchigiana Anconetana (Ancona) Mare 43.91 13.37 8.2
05/12/2022 12:16:53 ML 2.0 Costa Marchigiana Pesarese (Pesaro-Urbino) Mare 44.04 13.31 11.9
05/12/2022 06:49:11 ML 3.1 Tirreno Meridionale (MARE) Mare 38.99 15.25 292.4
05/12/2022 06:13:04 ML 2.5 7 km a ovest di Montemonaco (AP) Marche 42.92 13.25 25.1
05/12/2022 04:18:03 ML 2.2 Costa Marchigiana Anconetana (Ancona) Mare 43.88 13.38 8.9
05/12/2022 02:54:43 ML 2.1 8 km a est di Volturino (FG) Puglia 41.50 15.22 17.4
05/12/2022 01:12:43 ML 2.1 France Mondo 44.25 6.23 2.3
05/12/2022 00:46:13 ML 2.2 2 km a nord di San Giovanni in Fiore (CS) Calabria 39.27 16.69 29.5
04/12/2022 21:16:01 ML 2.1 Isole Eolie (Messina) Mare 38.38 14.88 13.2
04/12/2022 20:24:13 Mwp 6.8 Tonga Islands (Sea: Tonga) Mondo -15.38 -173.06 15.6
04/12/2022 14:41:19 ML 2.0 Costa Marchigiana Pesarese (Pesaro-Urbino) Mare 43.95 13.31 25.3
04/12/2022 14:31:59 ML 2.4 Costa Siciliana nord-orientale (Messina) Mare 38.40 15.39 120.7
04/12/2022 13:41:47 ML 2.2 Mar Ionio Settentrionale (MARE) Mare 38.93 17.88 15.3
04/12/2022 12:46:01 ML 2.0 8 km a ovest di Scicli (RG) Sicilia 36.81 14.62 27.0
04/12/2022 12:29:12 ML 2.8 Costa Marchigiana Anconetana (Ancona) Mare 43.89 13.37 8.7
04/12/2022 12:14:01 Mwp 5.7 Reykjanes Ridge (Sea) Mondo 54.12 -35.66 0.8
04/12/2022 11:44:07 ML 2.3 3 km a ovest di Serravalle di Chienti (MC) Marche 43.08 12.91 8.6
04/12/2022 10:53:13 Mwp 5.7 Gabon Mondo -0.97 10.20 1.6
04/12/2022 08:50:43 ML 2.9 Tirreno Meridionale (MARE) Mare 38.48 15.54 138.4
04/12/2022 08:18:45 ML 2.0 Isole Eolie (Messina) Mare 38.35 14.89 5.6
04/12/2022 08:12:45 Mw 4.5 Isole Eolie (Messina) Mare 38.35 14.86 3.1
04/12/2022 01:40:56 ML 2.6 Tirreno Meridionale (MARE) Mare 38.73 15.57 202.6
03/12/2022 11:53:02 ML 2.3 4 km a sud di Capitignano (AQ) Abruzzo 42.49 13.31 16.1
03/12/2022 10:49:44 Mwp 5.7 Jawa, Indonesia (Land: Indonesia) Mondo -7.13 107.74 134.8
03/12/2022 05:41:07 ML 2.3 2 km a nord-ovest di Colognola ai Colli (VR) Veneto 45.45 11.18 11.1
03/12/2022 04:49:35 ML 2.3 Costa Ferrarese (Ferrara) Mare 44.77 12.33 2.2
03/12/2022 03:07:14 ML 2.0 1 km a sud-est di Trezzone (CO) Mondo 46.17 9.36 22.9
03/12/2022 01:59:46 ML 2.0 Costa Marchigiana Anconetana (Ancona) Mare 43.93 13.37 8.5
03/12/2022 00:39:27 ML 2.4 Costa Marchigiana Pesarese (Pesaro-Urbino) Mare 44.11 13.31 10.1
02/12/2022 21:05:06 ML 4.5 Bosnia and Herz. (Land) Mondo 43.09 18.11 17.6
02/12/2022 16:14:49 ML 2.3 Costa Marchigiana Anconetana (Ancona) Mare 43.92 13.40 7.5
02/12/2022 10:39:26 ML 2.8 Tirreno Meridionale (MARE) Mare 38.49 12.16 10.0
02/12/2022 09:22:16 ML 2.7 Tirreno Meridionale (MARE) Mare 38.44 11.95 10.0
02/12/2022 08:12:54 ML 2.2 Costa Marchigiana Anconetana (Ancona) Mare 43.88 13.34 17.8
02/12/2022 07:48:17 ML 2.4 Tirreno Meridionale (MARE) Mare 38.44 12.04 10.0
02/12/2022 07:21:51 ML 2.2 3 km a est di Castelnuovo di Val di Cecina (PI) Toscana 43.22 10.94 8.4
02/12/2022 06:18:48 ML 2.1 Costa Marchigiana Anconetana (Ancona) Mare 43.90 13.36 9.0
02/12/2022 04:55:22 ML 2.3 Tirreno Meridionale (MARE) Mare 38.48 12.03 10.0
02/12/2022 03:14:11 ML 3.4 Tirreno Meridionale (MARE) Mare 38.50 12.16 19.8
02/12/2022 02:43:33 ML 2.6 Costa Marchigiana Anconetana (Ancona) Mare 43.87 13.36 8.4
02/12/2022 00:18:34 ML 2.9 Tirreno Meridionale (MARE) Mare 38.51 12.09 27.0
01/12/2022 23:49:19 ML 2.4 Tirreno Meridionale (MARE) Mare 38.51 12.08 3.8
01/12/2022 23:34:46 ML 2.7 Tirreno Meridionale (MARE) Mare 38.51 12.13 9.9
01/12/2022 23:28:34 ML 2.3 6 km nord-est Magisano (CZ) Calabria 39.06 16.66 16.5
01/12/2022 21:59:14 ML 2.4 Tirreno Meridionale (MARE) Mare 38.45 12.28 10.0
01/12/2022 21:56:17 ML 2.3 Tirreno Meridionale (MARE) Mare 38.38 12.31 10.0
01/12/2022 18:43:02 ML 2.3 Costa Siciliana nord-orientale (Messina) Mare 38.29 14.84 126.7
01/12/2022 18:15:22 ML 2.7 Mar Ionio Settentrionale (MARE) Mare 38.06 17.67 63.4
01/12/2022 14:02:27 ML 2.3 Costa Barlettana (Barletta) Mare 41.50 16.37 10.1
01/12/2022 06:15:19 ML 2.5 Costa Marchigiana Anconetana (Ancona) Mare 43.92 13.38 8.6
01/12/2022 05:42:07 ML 3.2 Costa Marchigiana Anconetana (Ancona) Mare 43.89 13.34 8.8
01/12/2022 05:16:34 ML 2.2 Costa Marchigiana Anconetana (Ancona) Mare 43.92 13.34 8.2
01/12/2022 04:51:04 ML 2.2 Costa Marchigiana Pesarese (Pesaro-Urbino) Mare 43.96 13.33 7.2
01/12/2022 04:49:34 ML 2.0 Costa Marchigiana Anconetana (Ancona) Mare 43.92 13.36 8.0
01/12/2022 02:01:21 ML 2.0 Tirreno Meridionale (MARE) Mare 38.39 12.12 10.5
01/12/2022 01:03:02 ML 3.4 Costa Marchigiana Anconetana (Ancona) Mare 43.89 13.33 9.7
30/11/2022 23:58:18 ML 2.2 Costa Marchigiana Anconetana (Ancona) Mare 43.93 13.38 8.7
30/11/2022 22:15:15 ML 2.7 4 km a nord di Pietralunga (PG) Umbria 43.48 12.43 7.1
30/11/2022 20:48:18 ML 2.1 5 km a nord di Magisano (CZ) Calabria 39.06 16.65 14.5
30/11/2022 18:40:43 ML 2.2 Costa Marchigiana Anconetana (Ancona) Mare 43.92 13.36 7.9
30/11/2022 16:17:46 Mwp 5.8 Southern Iran (Land: Iran) Mondo 26.85 55.18 17.2
30/11/2022 03:35:53 Md 2.0 Campi Flegrei Campania 40.83 14.15 1.4
30/11/2022 03:35:40 Md 2.3 Campi Flegrei Campania 40.83 14.16 2.8
30/11/2022 03:34:39 Md 2.6 Campi Flegrei Campania 40.83 14.15 2.0
30/11/2022 01:34:56 ML 2.0 4 km a nord di Pietralunga (PG) Umbria 43.48 12.43 8.0
Locations of visitors to this page (counting)
- subnet mask - partners - ipcheck - favicon - speedtest - canale youtube - programmone